Time;durP1;ratioP1;P1;durP2;ratioP2;P2;SDS_P1;SDS_P2;PMS_P1;PMS_P2;Temp;Humidity;BMP_temperature;BMP_pressure;BME280_temperature;BME280_humidity;BME280_pressure;Samples;Min_cycle;Max_cycle;Signal;HPM_P1;HPM_P2
2021/07/02 12:19:07;;;;;;;18.55;4.20;;;;;;;25.75;55.99;99155.84;5082958;27;20423;-47
2021/07/02 12:21:35;;;;;;;11.85;3.92;;;;;;;25.97;55.22;99156.75;5063130;28;20384;-58
2021/07/02 12:24:06;;;;;;;10.75;4.57;;;;;;;26.15;55.53;99157.97;4895645;28;113518;-57
2021/07/02 12:26:34;;;;;;;17.35;4.10;;;;;;;26.28;54.88;99165.81;5041311;28;20041;-58
2021/07/02 12:29:12;;;;;;;18.08;4.53;;;;;;;26.44;54.89;99167.22;5045854;28;20041;-54
2021/07/02 12:31:43;;;;;;;14.35;3.88;;;;;;;26.51;54.16;99158.53;5040430;28;20029;-58
2021/07/02 12:34:11;;;;;;;;;;;;;;;26.59;54.28;99171.28;5049420;28;20131;-51
2021/07/02 12:37:00;;;;;;;9.85;3.80;;;;;;;26.65;53.65;99170.78;5046192;28;19931;-56
2021/07/02 12:39:49;;;;;;;11.05;3.63;;;;;;;26.70;53.92;99160.53;4983017;28;20412;-55
2021/07/02 12:42:31;;;;;;;5.97;3.35;;;;;;;24.93;53.42;99164.94;5048186;28;20040;-5
2021/07/02 12:45:00;;;;;;;4.65;3.30;;;;;;;24.73;55.69;99153.09;5045424;28;20033;-6
2021/07/02 12:47:31;;;;;;;6.63;3.65;;;;;;;24.86;54.28;99144.97;5046737;28;20065;-6
2021/07/02 12:50:04;;;;;;;4.32;3.05;;;;;;;24.57;53.75;99150.72;5033781;28;20530;-5
2021/07/02 12:55:14;;;;;;;5.93;3.20;;;;;;;24.10;56.91;99143.47;5047950;28;20044;-5
2021/07/02 12:58:15;;;;;;;9.43;3.45;;;;;;;23.66;56.08;99106.69;5039536;28;20684;-6
2021/07/02 13:00:45;;;;;;;4.78;3.47;;;;;;;22.91;57.83;99109.25;5042464;28;20076;-6
2021/07/02 13:03:15;;;;;;;8.73;3.63;;;;;;;22.68;60.07;99102.00;5047617;28;20048;-6
2021/07/02 13:05:43;;;;;;;9.15;3.75;;;;;;;23.59;60.59;99148.97;5045864;28;20037;-8
2021/07/02 13:08:12;;;;;;;6.15;3.47;;;;;;;24.19;56.49;99154.44;5041861;28;20389;-5
2021/07/02 13:10:39;;;;;;;4.85;3.53;;;;;;;24.45;56.87;99139.13;5042553;28;20069;-6
2021/07/02 13:13:09;;;;;;;10.27;3.92;;;;;;;24.60;58.65;99163.81;5048252;28;20037;-6
2021/07/02 13:15:54;;;;;;;12.15;3.38;;;;;;;24.65;54.86;99160.84;5046539;28;20429;-6
2021/07/02 13:18:26;;;;;;;5.30;2.92;;;;;;;23.78;57.02;99135.16;5047401;28;20053;-6
2021/07/02 13:21:03;;;;;;;14.80;4.40;;;;;;;24.48;59.24;99162.09;5042648;28;20425;-5
2021/07/02 13:23:34;;;;;;;13.80;3.85;;;;;;;24.48;55.40;99168.28;5028488;28;20045;-5
2021/07/02 13:26:14;;;;;;;13.55;3.50;;;;;;;24.29;55.53;99152.81;5047543;28;20389;-5
2021/07/02 13:28:49;;;;;;;10.85;3.63;;;;;;;24.11;55.63;99123.81;5042264;28;20029;-5
2021/07/02 13:31:25;;;;;;;17.45;3.63;;;;;;;24.40;58.84;99147.47;5011342;28;20048;-5
2021/07/02 13:33:59;;;;;;;10.45;3.42;;;;;;;24.04;58.20;99121.72;5029978;28;20045;-4
2021/07/02 13:36:33;;;;;;;5.88;2.97;;;;;;;24.04;57.43;99151.97;5033619;28;20044;-5
2021/07/02 13:39:16;;;;;;;10.35;3.03;;;;;;;24.19;59.24;99155.28;5034292;28;20099;-5
2021/07/02 13:41:43;;;;;;;4.65;3.00;;;;;;;24.10;56.27;99148.81;5031302;28;20034;-5
2021/07/02 13:44:12;;;;;;;6.65;2.70;;;;;;;24.17;55.94;99145.69;5034900;28;20037;-6
2021/07/02 13:46:39;;;;;;;5.78;2.78;;;;;;;24.30;55.99;99126.94;5030204;28;20045;-6
2021/07/02 13:49:06;;;;;;;3.55;2.38;;;;;;;23.61;56.76;99155.06;5034142;28;20041;-6
2021/07/02 13:51:33;;;;;;;3.45;2.20;;;;;;;23.73;55.67;99135.47;5037176;28;20033;-5
2021/07/02 13:54:09;;;;;;;3.42;2.17;;;;;;;24.08;58.79;99147.25;5028203;28;20048;-6
2021/07/02 13:56:38;;;;;;;3.97;2.20;;;;;;;24.02;54.83;99147.69;5045914;28;20049;-4
2021/07/02 13:59:07;;;;;;;4.32;2.33;;;;;;;23.83;54.81;99132.13;5032543;28;20538;-3
2021/07/02 14:01:34;;;;;;;5.32;2.38;;;;;;;24.38;54.27;99152.09;5033928;28;20128;-3
2021/07/02 14:04:00;;;;;;;3.70;2.05;;;;;;;24.44;53.23;99154.31;5030684;28;20046;-3
2021/07/02 14:06:26;;;;;;;5.55;2.65;;;;;;;24.16;55.90;99162.66;5034191;28;20390;-3
2021/07/02 14:08:53;;;;;;;3.92;2.35;;;;;;;24.45;56.68;99160.50;5032367;28;20060;-4
2021/07/02 14:11:19;;;;;;;2.55;1.98;;;;;;;24.32;53.51;99149.06;5033496;28;20456;-3
2021/07/02 14:13:46;;;;;;;3.72;2.08;;;;;;;24.14;53.87;99156.63;5033306;28;20037;-4
2021/07/02 14:16:12;;;;;;;10.07;3.65;;;;;;;24.36;58.49;99170.06;5046045;28;20033;-4
2021/07/02 14:18:38;;;;;;;21.30;3.90;;;;;;;24.49;56.65;99166.47;5032579;28;20056;-4
2021/07/02 14:21:04;;;;;;;6.03;2.58;;;;;;;24.47;53.15;99163.94;5034426;28;20120;-2
2021/07/02 14:23:30;;;;;;;4.03;1.98;;;;;;;24.40;53.46;99163.50;5033545;28;20052;-3
2021/07/02 14:25:56;;;;;;;23.48;4.60;;;;;;;24.58;58.47;99155.94;5031888;28;20037;-3
2021/07/02 14:28:23;;;;;;;2.75;1.73;;;;;;;24.13;54.63;99165.59;5029913;28;20038;-4
2021/07/02 14:30:51;;;;;;;15.60;3.22;;;;;;;24.15;58.96;99169.00;5029648;28;20127;-2
2021/07/02 14:33:18;;;;;;;8.50;2.30;;;;;;;24.37;56.04;99168.25;5029853;28;20560;-2
2021/07/02 14:35:51;;;;;;;10.25;2.75;;;;;;;24.80;55.00;99177.50;5035491;28;20496;-3
2021/07/02 14:38:17;;;;;;;4.95;2.70;;;;;;;24.23;55.64;99163.94;5031933;28;20041;-4
2021/07/02 14:40:47;;;;;;;3.10;1.98;;;;;;;24.16;55.02;99168.88;5012887;28;20032;-4
2021/07/02 14:43:15;;;;;;;17.02;3.47;;;;;;;24.56;56.88;99171.25;5028996;28;20504;-4
2021/07/02 14:45:41;;;;;;;6.50;2.13;;;;;;;24.71;57.21;99171.06;5040104;28;20079;-3
2021/07/02 14:48:08;;;;;;;12.85;2.83;;;;;;;25.11;52.55;99178.69;5033119;28;20044;-4
2021/07/02 14:50:35;;;;;;;16.30;3.22;;;;;;;25.22;53.15;99178.69;5024850;28;20087;-4
2021/07/02 14:53:04;;;;;;;11.23;2.53;;;;;;;24.99;51.49;99132.38;5034311;28;20041;-5
2021/07/02 14:55:35;;;;;;;2.75;1.42;;;;;;;25.28;50.95;99185.41;5027173;28;20052;-3
2021/07/02 14:58:05;;;;;;;2.88;1.45;;;;;;;25.29;51.74;99168.34;5031964;28;20048;-3
2021/07/02 15:00:33;;;;;;;2.30;1.45;;;;;;;25.08;51.18;99115.59;5027898;28;20098;-4
2021/07/02 15:02:59;;;;;;;22.02;4.18;;;;;;;26.32;54.12;99142.31;5031340;28;20041;-3
2021/07/02 15:05:26;;;;;;;20.85;4.10;;;;;;;25.91;51.13;99124.16;5032346;28;20075;-3
2021/07/02 15:07:57;;;;;;;9.50;2.45;;;;;;;25.62;52.33;99147.97;5033845;28;20044;-4
2021/07/02 15:10:30;;;;;;;4.00;1.67;;;;;;;25.85;52.14;99178.22;5031966;28;20033;-3
2021/07/02 15:12:56;;;;;;;25.77;3.25;;;;;;;28.11;47.03;99172.50;5029962;28;20041;-3
2021/07/02 15:15:24;;;;;;;2.50;1.80;;;;;;;30.58;40.39;99172.38;5027956;28;20409;-4
2021/07/02 15:17:50;;;;;;;9.25;2.13;;;;;;;31.91;38.96;99168.63;5026494;28;20624;-4
2021/07/02 15:20:23;;;;;;;5.65;1.80;;;;;;;32.54;37.40;99169.06;5028165;28;20050;-2
2021/07/02 15:22:50;;;;;;;2.00;1.48;;;;;;;32.64;36.33;99180.56;5026129;28;20069;-3
2021/07/02 15:25:19;;;;;;;8.60;2.30;;;;;;;34.65;34.43;99152.34;5029101;28;20039;-3
2021/07/02 15:27:52;;;;;;;16.67;3.92;;;;;;;33.87;37.36;99171.38;5030111;28;20103;-3
2021/07/02 15:30:56;;;;;;;9.07;2.22;;;;;;;35.27;35.16;99185.72;5031038;28;20535;-3
2021/07/02 15:33:22;;;;;;;11.93;2.45;;;;;;;35.48;34.41;99186.88;5032424;28;20057;-4
2021/07/02 15:35:48;;;;;;;14.63;3.00;;;;;;;33.21;36.71;99160.72;5032036;28;20393;-4
2021/07/02 15:38:16;;;;;;;4.07;2.70;;;;;;;32.59;35.85;99139.66;5031848;28;20137;-4
2021/07/02 15:40:42;;;;;;;3.35;1.60;;;;;;;30.15;40.21;99147.84;5027398;28;20041;-3
2021/07/02 15:43:09;;;;;;;7.68;2.05;;;;;;;28.52;43.43;99124.81;5012173;28;20052;-4
2021/07/02 15:45:35;;;;;;;7.60;2.38;;;;;;;28.13;47.07;99173.19;5012539;28;20038;-4
2021/07/02 15:48:02;;;;;;;10.65;2.60;;;;;;;27.76;47.74;99130.84;5017197;28;20088;-4
2021/07/02 15:50:29;;;;;;;12.05;3.22;;;;;;;27.95;48.67;99185.56;5015602;28;20042;-3
2021/07/02 15:52:56;;;;;;;12.25;3.45;;;;;;;28.72;47.25;99189.34;5020999;28;20143;-3
2021/07/02 15:55:25;;;;;;;8.75;2.30;;;;;;;31.55;41.76;99193.09;5029994;28;20061;-4
2021/07/02 15:57:53;;;;;;;13.52;3.00;;;;;;;33.42;37.08;99191.84;5031140;28;20045;-4
2021/07/02 16:00:20;;;;;;;9.32;2.65;;;;;;;32.88;38.13;99130.16;5022875;28;20052;-4
2021/07/02 16:02:49;;;;;;;5.28;2.17;;;;;;;32.52;36.32;99166.53;5032428;28;20118;-3
2021/07/02 16:05:32;;;;;;;9.70;2.35;;;;;;;29.35;44.32;99185.28;5030404;28;20033;-3
2021/07/02 16:08:01;;;;;;;6.40;2.47;;;;;;;29.12;43.60;99188.28;5025657;28;20591;-4
2021/07/02 16:10:28;;;;;;;3.25;1.83;;;;;;;31.43;39.30;99201.50;5023524;28;20445;-3
2021/07/02 16:12:54;;;;;;;10.50;2.63;;;;;;;32.96;38.63;99201.38;5022015;28;20112;-4
2021/07/02 16:15:21;;;;;;;14.73;2.60;;;;;;;32.95;38.71;99193.44;5024055;28;20045;-4
2021/07/02 16:17:48;;;;;;;2.90;1.90;;;;;;;32.78;36.73;99198.03;5024860;28;20045;-3
2021/07/02 16:20:14;;;;;;;5.88;2.60;;;;;;;32.92;38.36;99200.03;5027364;28;20044;-3
2021/07/02 16:22:41;;;;;;;10.82;2.67;;;;;;;34.01;36.06;99204.16;5030684;28;20140;-3
2021/07/02 16:25:08;;;;;;;4.65;2.00;;;;;;;33.77;35.23;99212.19;5031343;28;20037;-3
2021/07/02 16:27:35;;;;;;;8.70;2.35;;;;;;;32.95;36.32;99207.81;5026054;28;20412;-4
2021/07/02 16:30:02;;;;;;;7.65;2.50;;;;;;;30.08;43.71;99198.00;5028066;28;20544;-5
2021/07/02 16:32:30;;;;;;;8.85;3.53;;;;;;;28.34;45.65;99208.03;5025581;28;20558;-4
2021/07/02 16:34:56;;;;;;;3.00;2.00;;;;;;;27.62;46.11;99203.72;5030168;28;20129;-4
2021/07/02 16:37:22;;;;;;;5.28;2.80;;;;;;;27.74;46.60;99210.66;5029109;28;20511;-4
2021/07/02 16:39:49;;;;;;;3.15;1.90;;;;;;;25.82;49.82;99178.44;5021518;28;20161;-4
2021/07/02 16:42:15;;;;;;;13.73;2.50;;;;;;;24.94;54.05;99193.38;5028196;28;20029;-4
2021/07/02 16:44:42;;;;;;;3.10;2.00;;;;;;;24.16;55.17;99194.72;5032430;28;20119;-2
2021/07/02 16:47:08;;;;;;;4.60;2.22;;;;;;;23.26;57.75;99198.41;5033598;28;20041;-3
2021/07/02 16:49:35;;;;;;;3.83;2.08;;;;;;;23.07;57.94;99188.13;5037297;28;20036;-3
2021/07/02 16:52:02;;;;;;;6.38;2.40;;;;;;;23.13;59.08;99167.22;5039283;28;20171;-3
2021/07/02 16:54:30;;;;;;;7.38;2.40;;;;;;;22.85;58.97;99178.94;5031745;28;20045;-3
2021/07/02 16:56:56;;;;;;;8.10;2.20;;;;;;;23.15;62.60;99208.97;5033777;28;20037;-4
2021/07/02 16:59:23;;;;;;;4.18;2.38;;;;;;;22.94;59.39;99186.34;5021134;28;20120;-4
2021/07/02 17:01:53;;;;;;;9.85;2.45;;;;;;;23.21;59.79;99205.88;5034675;28;20407;-3
2021/07/02 17:04:20;;;;;;;5.80;2.30;;;;;;;22.79;60.17;99192.72;5033810;28;20064;-3
2021/07/02 17:06:48;;;;;;;11.43;2.97;;;;;;;23.13;61.67;99206.38;5012752;28;20033;-4
2021/07/02 17:09:14;;;;;;;5.22;2.22;;;;;;;22.69;60.29;99213.78;5030708;28;20449;-3
2021/07/02 17:11:41;;;;;;;4.60;2.42;;;;;;;22.18;61.99;99229.56;5034161;28;20583;-3
2021/07/02 17:14:09;;;;;;;4.93;2.53;;;;;;;21.88;62.32;99204.81;5034148;28;20049;-3
2021/07/02 17:16:43;;;;;;;13.90;2.63;;;;;;;22.04;65.34;99228.63;5033156;28;20037;-3
2021/07/02 17:19:12;;;;;;;4.43;2.45;;;;;;;22.45;61.63;99224.28;5010747;28;20161;-3
2021/07/02 17:21:38;;;;;;;3.10;2.15;;;;;;;22.25;61.45;99183.81;5036331;28;20194;-4
2021/07/02 17:24:05;;;;;;;3.30;2.28;;;;;;;22.07;62.48;99216.91;5034363;28;20029;-4
2021/07/02 17:26:33;;;;;;;2.58;2.00;;;;;;;21.73;63.08;99211.97;5033510;28;20044;-18
2021/07/02 17:29:00;;;;;;;3.78;2.40;;;;;;;21.84;63.32;99208.63;5034152;28;20117;-3
2021/07/02 17:31:28;;;;;;;13.63;3.70;;;;;;;21.92;66.71;99216.94;5034697;28;20041;-3
2021/07/02 17:33:56;;;;;;;10.27;3.10;;;;;;;21.97;66.72;99196.22;5030156;28;20048;-3
2021/07/02 17:36:25;;;;;;;8.88;3.30;;;;;;;22.17;62.19;99226.03;5031889;28;20041;-3
2021/07/02 17:38:54;;;;;;;;;;;;;;;21.68;65.90;99195.44;5032587;28;20037;-3
2021/07/02 17:41:23;;;;;;;5.95;3.53;;;;;;;21.72;62.82;99215.56;5033336;28;20411;-4
2021/07/02 17:43:49;;;;;;;4.57;2.00;;;;;;;21.51;64.54;99207.09;5015248;28;20037;-4
2021/07/02 17:46:17;;;;;;;4.80;2.28;;;;;;;21.46;64.38;99222.50;5008608;28;20041;-3
2021/07/02 17:48:44;;;;;;;2.50;1.52;;;;;;;20.97;65.27;99218.34;5027219;28;20036;-3
2021/07/02 17:51:11;;;;;;;4.05;1.90;;;;;;;21.00;65.94;99226.13;5030425;28;20044;-6
2021/07/02 17:53:37;;;;;;;3.25;1.80;;;;;;;20.54;66.61;99227.00;5030885;28;20052;-3
2021/07/02 17:56:04;;;;;;;2.90;1.90;;;;;;;20.37;67.00;99219.16;5030001;28;20511;-3
2021/07/02 17:58:30;;;;;;;4.57;2.03;;;;;;;20.45;67.67;99241.66;5030981;28;20052;-3
2021/07/02 18:00:56;;;;;;;10.52;2.55;;;;;;;20.31;67.62;99218.56;5016892;28;20041;-3
2021/07/02 18:03:23;;;;;;;5.75;1.83;;;;;;;20.47;67.33;99223.00;5029397;28;20039;-8
2021/07/02 18:05:49;;;;;;;8.15;2.50;;;;;;;20.54;69.80;99236.78;5028094;28;20042;-3
2021/07/02 18:08:15;;;;;;;4.40;2.40;;;;;;;20.41;68.70;99231.31;5033003;28;20041;-4
2021/07/02 18:10:41;;;;;;;6.18;2.60;;;;;;;20.60;70.51;99231.13;5031080;28;20408;-2
2021/07/02 18:13:08;;;;;;;9.93;3.00;;;;;;;20.63;67.34;99242.38;5027329;28;20401;-3
2021/07/02 18:15:36;;;;;;;12.90;2.80;;;;;;;21.01;70.04;99246.44;5032174;28;20128;-4
2021/07/02 18:18:04;;;;;;;9.77;4.68;;;;;;;21.23;65.54;99256.63;5044688;28;20060;-4
2021/07/02 18:20:31;;;;;;;4.30;2.78;;;;;;;21.09;65.24;99243.31;5032142;28;20837;-5
2021/07/02 18:23:00;;;;;;;13.43;3.33;;;;;;;21.06;69.47;99246.16;5034272;28;20052;-3
2021/07/02 18:25:26;;;;;;;2.50;1.90;;;;;;;21.01;65.96;99249.09;5024741;28;20042;-3
2021/07/02 18:27:52;;;;;;;10.10;2.75;;;;;;;20.99;67.07;99253.66;5030247;28;20523;-3
2021/07/02 18:30:19;;;;;;;4.75;2.05;;;;;;;20.90;66.47;99249.75;5015188;28;20044;-3
2021/07/02 18:32:45;;;;;;;4.13;2.25;;;;;;;20.66;66.54;99251.97;5030654;28;20033;-3
2021/07/02 18:35:11;;;;;;;5.05;2.70;;;;;;;20.41;68.83;99228.66;5016575;28;20061;-3
2021/07/02 18:37:38;;;;;;;6.80;2.88;;;;;;;20.36;67.46;99258.09;5031372;28;20077;-4
2021/07/02 18:40:05;;;;;;;6.57;2.85;;;;;;;20.20;68.12;99259.94;5030214;28;20041;-3
2021/07/02 18:42:31;;;;;;;4.55;2.75;;;;;;;20.19;68.28;99242.28;5031851;28;20041;-3
2021/07/02 18:44:58;;;;;;;14.35;7.65;;;;;;;20.35;67.70;99232.53;5029499;28;20242;-3
2021/07/02 18:47:25;;;;;;;12.07;3.50;;;;;;;20.62;70.27;99261.94;5023450;28;20037;-10
2021/07/02 18:49:51;;;;;;;6.80;2.72;;;;;;;20.39;67.65;99265.91;5031803;28;20132;-3
2021/07/02 18:52:17;;;;;;;8.13;3.30;;;;;;;20.32;68.18;99254.78;5042601;28;20037;-3
2021/07/02 18:54:44;;;;;;;5.38;2.90;;;;;;;20.14;70.25;99269.94;5031017;28;20033;-2
2021/07/02 18:57:10;;;;;;;7.22;2.60;;;;;;;19.97;68.90;99249.66;5031178;28;20033;-2
2021/07/02 18:59:36;;;;;;;4.18;2.20;;;;;;;19.96;68.69;99239.97;5030464;28;20215;-3
2021/07/02 19:02:03;;;;;;;6.57;2.40;;;;;;;19.99;68.82;99247.75;5032261;28;20451;-2
2021/07/02 19:04:29;;;;;;;7.05;2.55;;;;;;;19.90;69.64;99263.34;5028833;28;20084;-2
2021/07/02 19:06:55;;;;;;;7.03;3.30;;;;;;;20.14;69.51;99277.03;5028649;28;20083;-2
2021/07/02 19:09:22;;;;;;;4.28;2.65;;;;;;;19.95;68.95;99235.59;5030835;28;20374;-2
2021/07/02 19:11:48;;;;;;;12.00;3.92;;;;;;;20.57;71.41;99257.81;5022790;28;20041;-2
2021/07/02 19:14:16;;;;;;;4.75;2.78;;;;;;;20.09;69.01;99264.03;5030770;28;20555;-3
2021/07/02 19:16:42;;;;;;;4.63;2.65;;;;;;;20.23;68.84;99271.22;5022107;28;20386;-3
2021/07/02 19:19:08;;;;;;;4.32;2.95;;;;;;;19.76;69.63;99242.81;5026740;28;20042;-3
2021/07/02 19:21:34;;;;;;;7.00;3.63;;;;;;;19.65;70.12;99267.28;5029430;28;20531;-3
2021/07/02 19:24:07;;;;;;;4.65;3.28;;;;;;;19.41;71.84;99241.13;5028463;28;20168;-3
2021/07/02 19:26:37;;;;;;;6.47;3.55;;;;;;;19.56;70.88;99262.47;5024193;28;20432;-3
2021/07/02 19:29:04;;;;;;;5.00;2.97;;;;;;;19.74;72.70;99257.97;5029893;28;20033;-3
2021/07/02 19:31:32;;;;;;;3.70;2.50;;;;;;;19.91;69.63;99234.06;5031752;28;20047;-2
2021/07/02 19:33:59;;;;;;;8.55;3.00;;;;;;;20.19;71.71;99229.88;5027743;28;20122;-10
2021/07/02 19:36:25;;;;;;;7.15;2.90;;;;;;;20.43;68.78;99263.94;5007787;28;20038;-3
2021/07/02 19:38:51;;;;;;;8.23;2.70;;;;;;;20.43;70.20;99256.81;5030726;28;20516;-7
2021/07/02 19:41:17;;;;;;;3.35;2.70;;;;;;;20.17;69.26;99239.72;5029337;28;20124;-3
2021/07/02 19:43:43;;;;;;;4.18;2.97;;;;;;;20.26;69.92;99257.78;5040371;28;20503;-3
2021/07/02 19:46:09;;;;;;;5.18;3.55;;;;;;;20.20;68.95;99268.72;5013436;28;20060;-2
2021/07/02 19:48:35;;;;;;;5.72;3.40;;;;;;;20.47;68.43;99273.44;5013740;28;20034;-4
2021/07/02 19:51:01;;;;;;;5.88;2.42;;;;;;;20.69;69.51;99272.19;5025004;28;20789;-3
2021/07/02 19:53:31;;;;;;;5.70;4.35;;;;;;;20.29;68.76;99268.22;5028007;28;20049;-3
2021/07/02 19:55:57;;;;;;;6.43;3.30;;;;;;;20.56;68.53;99241.06;5026376;28;20481;-3
2021/07/02 19:58:27;;;;;;;4.82;3.40;;;;;;;20.63;69.91;99268.94;5016100;28;20048;-3
2021/07/02 20:00:53;;;;;;;6.78;3.40;;;;;;;20.38;68.35;99236.81;5025516;28;20060;-3
2021/07/02 20:03:20;;;;;;;5.63;4.03;;;;;;;20.32;69.63;99236.22;5025965;28;20041;-3
2021/07/02 20:05:49;;;;;;;8.60;3.85;;;;;;;20.64;68.86;99262.69;5019114;28;20120;-3
2021/07/02 20:08:16;;;;;;;8.57;3.55;;;;;;;20.63;67.67;99238.91;4996292;28;20390;-3
2021/07/02 20:10:42;;;;;;;4.43;2.92;;;;;;;20.66;68.26;99221.00;5024779;28;20444;-3
2021/07/02 20:13:09;;;;;;;6.25;3.50;;;;;;;20.69;67.64;99256.25;5011993;28;20045;-3
2021/07/02 20:15:35;;;;;;;5.13;3.20;;;;;;;20.91;68.11;99267.41;5019104;28;20069;-3
2021/07/02 20:18:01;;;;;;;8.40;3.33;;;;;;;21.29;66.25;99266.91;5027939;28;20460;-4
2021/07/02 20:20:27;;;;;;;7.38;3.35;;;;;;;20.97;66.79;99237.78;5021675;28;20076;-1
2021/07/02 20:22:53;;;;;;;7.07;3.20;;;;;;;20.54;68.18;99208.41;5044185;28;20132;-3
2021/07/02 20:25:19;;;;;;;5.80;3.20;;;;;;;20.99;66.95;99221.78;5027714;28;20053;-3
2021/07/02 20:27:45;;;;;;;3.97;3.13;;;;;;;20.72;66.94;99209.16;5020790;28;20045;-22
2021/07/02 20:30:12;;;;;;;6.80;3.80;;;;;;;20.55;67.53;99262.38;5011273;28;20048;-4
2021/07/02 20:32:38;;;;;;;4.63;3.58;;;;;;;20.08;70.69;99251.69;5032570;28;20133;-4
2021/07/02 20:35:05;;;;;;;5.32;3.45;;;;;;;20.27;68.29;99242.69;5032422;28;20488;-4
2021/07/02 20:37:33;;;;;;;6.78;3.58;;;;;;;20.29;68.10;99251.44;5032437;28;20098;-4
2021/07/02 20:39:59;;;;;;;4.72;3.28;;;;;;;20.27;68.37;99261.28;5033432;28;20037;-4
2021/07/02 20:42:28;;;;;;;6.53;3.65;;;;;;;20.20;68.46;99260.78;5034844;28;20064;-1
2021/07/02 20:44:55;;;;;;;15.32;4.05;;;;;;;20.40;69.32;99257.00;5030158;28;20373;-3
2021/07/02 20:47:21;;;;;;;6.68;3.05;;;;;;;20.26;67.53;99231.25;5031514;28;20088;-3
2021/07/02 20:49:47;;;;;;;6.30;3.05;;;;;;;20.27;67.98;99246.22;5033105;28;21735;-4
2021/07/02 20:52:13;;;;;;;8.15;3.00;;;;;;;20.21;69.55;99230.66;5035376;28;20224;-3
2021/07/02 20:54:39;;;;;;;5.05;3.03;;;;;;;20.06;68.45;99242.13;5043675;28;20124;-3
2021/07/02 20:57:05;;;;;;;6.43;2.85;;;;;;;19.89;70.84;99213.88;5034724;28;20124;-2
2021/07/02 20:59:32;;;;;;;4.65;2.83;;;;;;;19.91;70.62;99196.94;5032616;28;20034;-3
2021/07/02 21:01:58;;;;;;;4.18;2.92;;;;;;;19.83;69.40;99218.56;5021541;28;20048;-3
2021/07/02 21:04:24;;;;;;;5.88;2.90;;;;;;;19.54;69.85;99196.25;5031843;28;20064;-4
2021/07/02 21:06:52;;;;;;;4.53;3.20;;;;;;;19.10;70.44;99204.78;5035180;28;20119;-3
2021/07/02 21:09:18;;;;;;;5.43;2.90;;;;;;;19.19;71.25;99244.06;5034891;28;20030;-3
2021/07/02 21:11:44;;;;;;;8.45;3.30;;;;;;;19.30;70.76;99247.00;5030965;28;20406;-4
2021/07/02 21:14:10;;;;;;;5.60;3.20;;;;;;;19.21;71.08;99252.78;5035382;28;20041;-4
2021/07/02 21:16:38;;;;;;;6.32;3.40;;;;;;;18.84;71.21;99218.41;5035360;28;20038;-3
2021/07/02 21:19:05;;;;;;;4.55;3.08;;;;;;;18.82;71.86;99236.16;5034882;28;20568;-12
2021/07/02 21:21:32;;;;;;;4.75;2.97;;;;;;;19.00;70.85;99241.50;5026138;28;20041;-4
2021/07/02 21:23:59;;;;;;;5.82;3.38;;;;;;;19.08;70.89;99236.66;5025161;28;20073;-3
2021/07/02 21:26:25;;;;;;;4.50;2.72;;;;;;;18.55;70.82;99181.94;5035794;28;20086;-3
2021/07/02 21:28:52;;;;;;;6.47;3.85;;;;;;;18.34;72.06;99196.19;5035814;28;20128;-3
2021/07/02 21:31:18;;;;;;;5.68;3.58;;;;;;;18.83;71.66;99250.25;5034631;28;20037;-3
2021/07/02 21:33:44;;;;;;;4.63;3.22;;;;;;;18.56;71.56;99223.38;5035387;28;20056;-3
2021/07/02 21:36:10;;;;;;;6.47;3.28;;;;;;;18.71;71.87;99246.44;5034259;28;20033;-3
2021/07/02 21:38:37;;;;;;;5.93;3.38;;;;;;;18.53;72.39;99242.91;5034370;28;20123;-3
2021/07/02 21:41:03;;;;;;;5.38;3.40;;;;;;;18.13;72.39;99189.28;5034072;28;20465;-3
2021/07/02 21:43:29;;;;;;;7.00;3.50;;;;;;;18.32;72.56;99210.44;5035002;28;20531;-3
2021/07/02 21:45:55;;;;;;;5.65;3.58;;;;;;;18.42;72.85;99250.50;5025150;28;20045;-3
2021/07/02 21:48:21;;;;;;;5.18;3.42;;;;;;;18.33;73.36;99247.38;5034229;28;20044;-3
2021/07/02 21:50:48;;;;;;;6.25;4.07;;;;;;;18.39;75.71;99240.94;5031137;28;20029;-3
2021/07/02 21:53:16;;;;;;;4.88;3.30;;;;;;;18.38;72.09;99193.38;5012910;28;20041;-3
2021/07/02 21:55:43;;;;;;;5.30;3.83;;;;;;;18.61;72.32;99239.88;5012591;28;20548;-3
2021/07/02 21:58:09;;;;;;;5.13;3.22;;;;;;;18.35;72.75;99211.13;5011479;28;20056;-3
2021/07/02 22:00:35;;;;;;;7.03;3.05;;;;;;;18.53;73.23;99237.63;5012496;28;20128;-3
2021/07/02 22:03:01;;;;;;;6.90;4.07;;;;;;;18.33;73.32;99242.09;5012464;28;20125;-3
2021/07/02 22:05:28;;;;;;;7.32;2.88;;;;;;;18.57;74.53;99246.28;5013712;28;20397;-3
2021/07/02 22:07:54;;;;;;;4.25;2.90;;;;;;;18.10;73.18;99190.28;5013695;28;20038;-3
2021/07/02 22:10:20;;;;;;;5.60;3.53;;;;;;;18.31;73.40;99249.25;5013877;28;20037;-3
2021/07/02 22:12:46;;;;;;;7.90;3.53;;;;;;;17.78;74.22;99197.06;5015191;28;20045;-3
2021/07/02 22:15:12;;;;;;;5.75;3.72;;;;;;;17.86;74.50;99224.03;5014939;28;20048;-3
2021/07/02 22:17:39;;;;;;;8.07;3.40;;;;;;;17.59;75.18;99197.94;5014987;28;20045;-4
2021/07/02 22:20:07;;;;;;;5.68;3.42;;;;;;;17.48;75.71;99202.84;5014865;28;20042;-3
2021/07/02 22:22:33;;;;;;;5.22;3.50;;;;;;;17.73;75.48;99233.44;5014800;28;20050;-3
2021/07/02 22:24:58;;;;;;;6.30;3.35;;;;;;;17.57;76.54;99209.50;5014743;28;20057;-3
2021/07/02 22:27:24;;;;;;;5.35;3.20;;;;;;;17.75;74.73;99207.81;5014768;28;20137;-3
2021/07/02 22:29:50;;;;;;;5.68;3.35;;;;;;;17.76;74.64;99209.53;5014670;28;20046;-4
2021/07/02 22:32:17;;;;;;;5.65;3.80;;;;;;;17.81;75.29;99234.81;5014893;28;20052;-4
2021/07/02 22:34:43;;;;;;;7.03;4.70;;;;;;;18.00;74.99;99261.28;5014606;28;20136;-4
2021/07/02 22:37:09;;;;;;;6.65;4.10;;;;;;;17.84;75.08;99237.31;5014987;28;20124;-4
2021/07/02 22:39:35;;;;;;;10.23;4.20;;;;;;;17.63;75.28;99204.78;5013284;28;20073;-4
2021/07/02 22:42:05;;;;;;;5.57;3.85;;;;;;;17.69;74.85;99199.22;5014562;28;20037;-4
2021/07/02 22:44:32;;;;;;;5.55;4.10;;;;;;;17.75;75.13;99205.16;5014494;28;20517;-4
2021/07/02 22:46:58;;;;;;;5.28;4.10;;;;;;;17.80;74.74;99205.81;5013244;28;20100;-4
2021/07/02 22:49:24;;;;;;;7.38;4.72;;;;;;;18.00;74.53;99218.97;5014192;28;20445;-4
2021/07/02 22:51:50;;;;;;;7.15;4.45;;;;;;;17.99;74.00;99211.97;5014808;28;20409;-4
2021/07/02 22:54:16;;;;;;;7.25;3.95;;;;;;;18.05;74.13;99213.47;5014511;28;20045;-4
2021/07/02 22:56:42;;;;;;;6.40;4.35;;;;;;;18.28;73.91;99243.25;5014453;28;20413;-4
2021/07/02 22:59:09;;;;;;;8.10;4.65;;;;;;;18.11;74.10;99236.13;5013199;28;20493;-3
2021/07/02 23:01:35;;;;;;;7.13;4.18;;;;;;;18.14;73.84;99212.16;5013672;28;20042;-4
2021/07/02 23:04:01;;;;;;;6.35;4.20;;;;;;;18.03;74.22;99207.41;5014618;28;20057;-3
2021/07/02 23:06:27;;;;;;;7.68;4.18;;;;;;;18.01;74.01;99204.81;5015058;28;20049;-5
2021/07/02 23:08:53;;;;;;;5.82;4.47;;;;;;;17.88;74.59;99214.22;5014514;28;20048;-4
2021/07/02 23:11:19;;;;;;;5.90;4.28;;;;;;;17.83;74.69;99222.38;5013927;28;20117;-4
2021/07/02 23:13:45;;;;;;;5.47;3.83;;;;;;;17.84;75.32;99244.38;5014045;28;20417;-4
2021/07/02 23:16:11;;;;;;;6.82;4.25;;;;;;;17.57;75.17;99223.56;5013915;28;20041;-4
2021/07/02 23:18:37;;;;;;;5.88;3.95;;;;;;;17.59;75.82;99227.00;5012468;28;20516;-4
2021/07/02 23:21:03;;;;;;;7.93;4.63;;;;;;;17.62;75.31;99218.94;5014165;28;20038;-4
2021/07/02 23:23:29;;;;;;;7.05;4.60;;;;;;;17.63;75.31;99233.88;5014019;28;20059;-3
2021/07/02 23:25:55;;;;;;;4.93;3.55;;;;;;;18.04;74.79;99229.41;5013688;28;20390;-4
2021/07/02 23:28:21;;;;;;;7.05;4.75;;;;;;;18.05;73.96;99231.13;5012450;28;20037;-4
2021/07/02 23:30:47;;;;;;;5.60;4.15;;;;;;;18.44;73.44;99289.19;5013545;28;20044;-4
2021/07/02 23:33:13;;;;;;;7.05;4.38;;;;;;;17.84;74.38;99231.16;5012674;28;20374;-4
2021/07/02 23:35:39;;;;;;;6.90;4.55;;;;;;;17.81;74.54;99233.97;5013818;28;20464;-4
2021/07/02 23:38:05;;;;;;;6.47;4.30;;;;;;;17.98;74.43;99263.13;5012128;28;20124;-3
2021/07/02 23:40:31;;;;;;;7.93;4.47;;;;;;;17.62;74.65;99228.66;5013512;28;20049;-4
2021/07/02 23:42:57;;;;;;;4.43;3.17;;;;;;;18.09;73.98;99227.41;5012916;28;20048;-4
2021/07/02 23:45:23;;;;;;;8.35;4.10;;;;;;;18.11;73.45;99259.94;5013477;28;20122;-3
2021/07/02 23:47:49;;;;;;;6.20;3.75;;;;;;;17.99;73.32;99248.13;5013352;28;20038;-3
2021/07/02 23:50:15;;;;;;;5.88;4.00;;;;;;;17.84;73.66;99244.38;5013324;28;20569;-3
2021/07/02 23:52:42;;;;;;;7.60;3.70;;;;;;;17.84;73.97;99255.81;5013219;28;20041;-3
2021/07/02 23:55:09;;;;;;;8.15;4.40;;;;;;;17.83;74.18;99254.13;5013503;28;20140;-3
2021/07/02 23:57:35;;;;;;;6.35;4.10;;;;;;;17.71;74.61;99241.44;5013106;28;20560;-4
